sensor_id;sensor_type;location;lat;lon;timestamp;temperature;humidity
22288;DHT22;11312;51.464;6.968;2022-07-06T00:01:24;15.60;99.90
22288;DHT22;11312;51.464;6.968;2022-07-06T00:03:50;15.60;99.90
22288;DHT22;11312;51.464;6.968;2022-07-06T00:06:16;15.50;99.90
22288;DHT22;11312;51.464;6.968;2022-07-06T00:08:44;15.50;99.90
22288;DHT22;11312;51.464;6.968;2022-07-06T00:11:11;15.40;99.90
22288;DHT22;11312;51.464;6.968;2022-07-06T00:13:38;15.40;99.90
22288;DHT22;11312;51.464;6.968;2022-07-06T00:16:04;15.40;99.90
22288;DHT22;11312;51.464;6.968;2022-07-06T00:18:29;15.50;99.90
22288;DHT22;11312;51.464;6.968;2022-07-06T00:20:55;15.40;99.90
22288;DHT22;11312;51.464;6.968;2022-07-06T00:23:21;15.50;99.90
22288;DHT22;11312;51.464;6.968;2022-07-06T00:25:47;15.50;99.90
22288;DHT22;11312;51.464;6.968;2022-07-06T00:28:14;15.50;99.90
22288;DHT22;11312;51.464;6.968;2022-07-06T00:30:40;15.60;99.90
22288;DHT22;11312;51.464;6.968;2022-07-06T00:33:05;15.50;99.90
22288;DHT22;11312;51.464;6.968;2022-07-06T00:35:32;15.50;99.90
22288;DHT22;11312;51.464;6.968;2022-07-06T00:37:57;15.60;99.90
22288;DHT22;11312;51.464;6.968;2022-07-06T00:40:23;15.50;99.90
22288;DHT22;11312;51.464;6.968;2022-07-06T00:42:49;15.50;99.90
22288;DHT22;11312;51.464;6.968;2022-07-06T00:45:17;15.50;99.90
22288;DHT22;11312;51.464;6.968;2022-07-06T00:47:43;15.30;99.90
22288;DHT22;11312;51.464;6.968;2022-07-06T00:50:11;15.30;99.90
22288;DHT22;11312;51.464;6.968;2022-07-06T00:53:02;15.30;99.90
22288;DHT22;11312;51.464;6.968;2022-07-06T00:55:31;15.20;99.90
22288;DHT22;11312;51.464;6.968;2022-07-06T00:57:57;15.30;99.90
22288;DHT22;11312;51.464;6.968;2022-07-06T01:00:25;15.20;99.90
22288;DHT22;11312;51.464;6.968;2022-07-06T01:02:51;15.10;99.90
22288;DHT22;11312;51.464;6.968;2022-07-06T01:05:18;15.10;99.90
22288;DHT22;11312;51.464;6.968;2022-07-06T01:07:45;15.00;99.90
22288;DHT22;11312;51.464;6.968;2022-07-06T01:10:13;15.00;99.90
22288;DHT22;11312;51.464;6.968;2022-07-06T01:12:40;15.00;99.90
22288;DHT22;11312;51.464;6.968;2022-07-06T01:15:09;14.90;99.90
22288;DHT22;11312;51.464;6.968;2022-07-06T01:17:35;14.90;99.90
22288;DHT22;11312;51.464;6.968;2022-07-06T01:20:21;14.90;99.90
22288;DHT22;11312;51.464;6.968;2022-07-06T01:22:49;14.80;99.90
22288;DHT22;11312;51.464;6.968;2022-07-06T01:25:15;14.70;99.90
22288;DHT22;11312;51.464;6.968;2022-07-06T01:27:42;14.70;99.90
22288;DHT22;11312;51.464;6.968;2022-07-06T01:30:10;14.60;99.90
22288;DHT22;11312;51.464;6.968;2022-07-06T01:32:37;14.60;99.90
22288;DHT22;11312;51.464;6.968;2022-07-06T01:35:05;14.60;99.90
22288;DHT22;11312;51.464;6.968;2022-07-06T01:37:31;14.60;99.90
22288;DHT22;11312;51.464;6.968;2022-07-06T01:39:59;14.60;99.90
22288;DHT22;11312;51.464;6.968;2022-07-06T01:42:25;14.50;99.90
22288;DHT22;11312;51.464;6.968;2022-07-06T01:44:51;14.40;99.90
22288;DHT22;11312;51.464;6.968;2022-07-06T01:47:17;14.40;99.90
22288;DHT22;11312;51.464;6.968;2022-07-06T01:49:42;14.40;99.90
22288;DHT22;11312;51.464;6.968;2022-07-06T01:52:08;14.30;99.90
22288;DHT22;11312;51.464;6.968;2022-07-06T01:54:34;14.40;99.90
22288;DHT22;11312;51.464;6.968;2022-07-06T01:56:59;14.30;99.90
22288;DHT22;11312;51.464;6.968;2022-07-06T01:59:25;14.20;99.90
22288;DHT22;11312;51.464;6.968;2022-07-06T02:01:51;14.10;99.90
22288;DHT22;11312;51.464;6.968;2022-07-06T02:04:16;14.10;99.90
22288;DHT22;11312;51.464;6.968;2022-07-06T02:06:42;14.00;99.90
22288;DHT22;11312;51.464;6.968;2022-07-06T02:09:07;14.10;99.90
22288;DHT22;11312;51.464;6.968;2022-07-06T02:11:33;14.10;99.90
22288;DHT22;11312;51.464;6.968;2022-07-06T02:13:59;14.10;99.90
22288;DHT22;11312;51.464;6.968;2022-07-06T02:16:24;14.00;99.90
22288;DHT22;11312;51.464;6.968;2022-07-06T02:18:50;14.10;99.90
22288;DHT22;11312;51.464;6.968;2022-07-06T02:21:16;13.90;99.90
22288;DHT22;11312;51.464;6.968;2022-07-06T02:23:42;14.00;99.90
22288;DHT22;11312;51.464;6.968;2022-07-06T02:26:07;14.00;99.90
22288;DHT22;11312;51.464;6.968;2022-07-06T02:28:33;13.90;99.90
22288;DHT22;11312;51.464;6.968;2022-07-06T02:30:59;13.90;99.90
22288;DHT22;11312;51.464;6.968;2022-07-06T02:33:24;13.90;99.90
22288;DHT22;11312;51.464;6.968;2022-07-06T02:35:50;13.80;99.90
22288;DHT22;11312;51.464;6.968;2022-07-06T02:38:16;13.90;99.90
22288;DHT22;11312;51.464;6.968;2022-07-06T02:40:42;13.80;99.90
22288;DHT22;11312;51.464;6.968;2022-07-06T02:43:08;13.70;99.90
22288;DHT22;11312;51.464;6.968;2022-07-06T02:45:34;13.80;99.90
22288;DHT22;11312;51.464;6.968;2022-07-06T02:48:00;13.70;99.90
22288;DHT22;11312;51.464;6.968;2022-07-06T02:50:25;13.70;99.90
22288;DHT22;11312;51.464;6.968;2022-07-06T02:52:51;13.70;99.90
22288;DHT22;11312;51.464;6.968;2022-07-06T02:55:17;13.60;99.90
22288;DHT22;11312;51.464;6.968;2022-07-06T02:57:42;13.60;99.90
22288;DHT22;11312;51.464;6.968;2022-07-06T03:00:09;13.70;99.90
22288;DHT22;11312;51.464;6.968;2022-07-06T03:02:36;13.60;99.90
22288;DHT22;11312;51.464;6.968;2022-07-06T03:05:02;13.60;99.90
22288;DHT22;11312;51.464;6.968;2022-07-06T03:07:28;13.70;99.90
22288;DHT22;11312;51.464;6.968;2022-07-06T03:09:53;13.70;99.90
22288;DHT22;11312;51.464;6.968;2022-07-06T03:12:19;13.70;99.90
22288;DHT22;11312;51.464;6.968;2022-07-06T03:14:45;13.70;99.90
22288;DHT22;11312;51.464;6.968;2022-07-06T03:17:10;13.60;99.90
22288;DHT22;11312;51.464;6.968;2022-07-06T03:19:36;13.60;99.90
22288;DHT22;11312;51.464;6.968;2022-07-06T03:22:02;13.60;99.90
22288;DHT22;11312;51.464;6.968;2022-07-06T03:24:28;13.70;99.90
22288;DHT22;11312;51.464;6.968;2022-07-06T03:26:53;13.70;99.90
22288;DHT22;11312;51.464;6.968;2022-07-06T03:29:19;13.70;99.90
22288;DHT22;11312;51.464;6.968;2022-07-06T03:31:46;13.70;99.90
22288;DHT22;11312;51.464;6.968;2022-07-06T03:34:11;13.70;99.90
22288;DHT22;11312;51.464;6.968;2022-07-06T03:36:38;13.70;99.90
22288;DHT22;11312;51.464;6.968;2022-07-06T03:39:03;13.60;99.90
22288;DHT22;11312;51.464;6.968;2022-07-06T03:41:29;13.70;99.90
22288;DHT22;11312;51.464;6.968;2022-07-06T03:43:55;13.70;99.90
22288;DHT22;11312;51.464;6.968;2022-07-06T03:46:20;13.80;99.90
22288;DHT22;11312;51.464;6.968;2022-07-06T03:48:46;13.80;99.90
22288;DHT22;11312;51.464;6.968;2022-07-06T03:51:11;13.90;99.90
22288;DHT22;11312;51.464;6.968;2022-07-06T03:53:37;13.90;99.90
22288;DHT22;11312;51.464;6.968;2022-07-06T03:56:03;13.90;99.90
22288;DHT22;11312;51.464;6.968;2022-07-06T03:58:47;13.90;99.90
22288;DHT22;11312;51.464;6.968;2022-07-06T04:01:12;13.90;99.90
22288;DHT22;11312;51.464;6.968;2022-07-06T04:03:38;14.00;99.90
22288;DHT22;11312;51.464;6.968;2022-07-06T04:06:04;14.10;99.90
22288;DHT22;11312;51.464;6.968;2022-07-06T04:08:30;14.10;99.90
22288;DHT22;11312;51.464;6.968;2022-07-06T04:10:56;14.00;99.90
22288;DHT22;11312;51.464;6.968;2022-07-06T04:13:21;14.20;99.90
22288;DHT22;11312;51.464;6.968;2022-07-06T04:15:47;14.30;99.90
22288;DHT22;11312;51.464;6.968;2022-07-06T04:18:13;14.40;99.90
22288;DHT22;11312;51.464;6.968;2022-07-06T04:20:39;14.30;99.90
22288;DHT22;11312;51.464;6.968;2022-07-06T04:23:04;14.40;99.90
22288;DHT22;11312;51.464;6.968;2022-07-06T04:25:30;14.40;99.90
22288;DHT22;11312;51.464;6.968;2022-07-06T04:27:56;14.50;99.90
22288;DHT22;11312;51.464;6.968;2022-07-06T04:30:21;14.50;99.90
22288;DHT22;11312;51.464;6.968;2022-07-06T04:32:47;14.50;99.90
22288;DHT22;11312;51.464;6.968;2022-07-06T04:35:13;14.60;99.90
22288;DHT22;11312;51.464;6.968;2022-07-06T04:37:38;14.60;99.90
22288;DHT22;11312;51.464;6.968;2022-07-06T04:40:04;14.50;99.90
22288;DHT22;11312;51.464;6.968;2022-07-06T04:42:30;14.60;99.90
22288;DHT22;11312;51.464;6.968;2022-07-06T04:44:56;14.60;99.90
22288;DHT22;11312;51.464;6.968;2022-07-06T04:47:22;14.80;99.90
22288;DHT22;11312;51.464;6.968;2022-07-06T04:49:47;14.70;99.90
22288;DHT22;11312;51.464;6.968;2022-07-06T04:52:13;14.80;99.90
22288;DHT22;11312;51.464;6.968;2022-07-06T04:54:38;14.80;99.90
22288;DHT22;11312;51.464;6.968;2022-07-06T04:57:04;14.90;99.90
22288;DHT22;11312;51.464;6.968;2022-07-06T04:59:30;15.00;99.90
22288;DHT22;11312;51.464;6.968;2022-07-06T05:01:56;15.10;99.90
22288;DHT22;11312;51.464;6.968;2022-07-06T05:04:21;15.30;99.90
22288;DHT22;11312;51.464;6.968;2022-07-06T05:06:49;15.30;99.90
22288;DHT22;11312;51.464;6.968;2022-07-06T05:09:14;15.40;99.90
22288;DHT22;11312;51.464;6.968;2022-07-06T05:11:40;15.10;99.90
22288;DHT22;11312;51.464;6.968;2022-07-06T05:14:06;15.30;99.90
22288;DHT22;11312;51.464;6.968;2022-07-06T05:16:32;15.20;99.90
22288;DHT22;11312;51.464;6.968;2022-07-06T05:18:58;15.30;99.90
22288;DHT22;11312;51.464;6.968;2022-07-06T05:21:24;15.20;99.90
22288;DHT22;11312;51.464;6.968;2022-07-06T05:23:50;15.30;99.90
22288;DHT22;11312;51.464;6.968;2022-07-06T05:26:15;15.30;99.90
22288;DHT22;11312;51.464;6.968;2022-07-06T05:28:41;15.40;99.90
22288;DHT22;11312;51.464;6.968;2022-07-06T05:31:07;15.40;99.90
22288;DHT22;11312;51.464;6.968;2022-07-06T05:33:32;15.40;99.90
22288;DHT22;11312;51.464;6.968;2022-07-06T05:35:58;15.50;99.90
22288;DHT22;11312;51.464;6.968;2022-07-06T05:38:24;15.60;99.90
22288;DHT22;11312;51.464;6.968;2022-07-06T05:40:50;15.80;99.90
22288;DHT22;11312;51.464;6.968;2022-07-06T05:43:16;16.00;99.90
22288;DHT22;11312;51.464;6.968;2022-07-06T05:45:41;16.30;99.90
22288;DHT22;11312;51.464;6.968;2022-07-06T05:48:07;16.90;99.90
22288;DHT22;11312;51.464;6.968;2022-07-06T05:50:51;17.30;99.90
22288;DHT22;11312;51.464;6.968;2022-07-06T05:53:17;17.20;99.90
22288;DHT22;11312;51.464;6.968;2022-07-06T05:55:42;17.00;99.90
22288;DHT22;11312;51.464;6.968;2022-07-06T05:58:08;16.90;99.90
22288;DHT22;11312;51.464;6.968;2022-07-06T06:00:34;17.00;99.90
22288;DHT22;11312;51.464;6.968;2022-07-06T06:03:00;17.40;99.90
22288;DHT22;11312;51.464;6.968;2022-07-06T06:05:25;16.90;99.90
22288;DHT22;11312;51.464;6.968;2022-07-06T06:07:51;16.60;99.90
22288;DHT22;11312;51.464;6.968;2022-07-06T06:10:19;16.60;99.90
22288;DHT22;11312;51.464;6.968;2022-07-06T06:12:45;16.60;99.90
22288;DHT22;11312;51.464;6.968;2022-07-06T06:15:12;16.60;99.90
22288;DHT22;11312;51.464;6.968;2022-07-06T06:17:38;16.60;99.90
22288;DHT22;11312;51.464;6.968;2022-07-06T06:20:06;16.70;99.90
22288;DHT22;11312;51.464;6.968;2022-07-06T06:22:48;16.70;99.90
22288;DHT22;11312;51.464;6.968;2022-07-06T06:25:16;16.60;99.90
22288;DHT22;11312;51.464;6.968;2022-07-06T06:27:42;16.70;99.90
22288;DHT22;11312;51.464;6.968;2022-07-06T06:30:08;17.00;99.90
22288;DHT22;11312;51.464;6.968;2022-07-06T06:32:34;17.10;99.90
22288;DHT22;11312;51.464;6.968;2022-07-06T06:34:59;17.20;99.90
22288;DHT22;11312;51.464;6.968;2022-07-06T06:37:25;17.20;99.90
22288;DHT22;11312;51.464;6.968;2022-07-06T06:39:51;17.30;99.90
22288;DHT22;11312;51.464;6.968;2022-07-06T06:42:16;17.30;99.90
22288;DHT22;11312;51.464;6.968;2022-07-06T06:44:42;17.30;99.90
22288;DHT22;11312;51.464;6.968;2022-07-06T06:47:07;17.40;99.90
22288;DHT22;11312;51.464;6.968;2022-07-06T06:49:33;17.60;99.90
22288;DHT22;11312;51.464;6.968;2022-07-06T06:51:59;17.70;99.90
22288;DHT22;11312;51.464;6.968;2022-07-06T06:54:24;17.60;99.90
22288;DHT22;11312;51.464;6.968;2022-07-06T06:56:51;17.60;99.90
22288;DHT22;11312;51.464;6.968;2022-07-06T06:59:17;17.70;99.90
22288;DHT22;11312;51.464;6.968;2022-07-06T07:01:42;17.70;99.90
22288;DHT22;11312;51.464;6.968;2022-07-06T07:04:08;17.70;99.90
22288;DHT22;11312;51.464;6.968;2022-07-06T07:06:34;17.90;99.90
22288;DHT22;11312;51.464;6.968;2022-07-06T07:09:00;18.10;99.90
22288;DHT22;11312;51.464;6.968;2022-07-06T07:11:26;18.30;99.90
22288;DHT22;11312;51.464;6.968;2022-07-06T07:13:52;18.40;99.90
22288;DHT22;11312;51.464;6.968;2022-07-06T07:16:17;18.60;99.90
22288;DHT22;11312;51.464;6.968;2022-07-06T07:18:43;18.60;99.90
22288;DHT22;11312;51.464;6.968;2022-07-06T07:21:09;18.70;99.90
22288;DHT22;11312;51.464;6.968;2022-07-06T07:23:35;18.60;99.90
22288;DHT22;11312;51.464;6.968;2022-07-06T07:26:01;18.60;99.90
22288;DHT22;11312;51.464;6.968;2022-07-06T07:28:26;18.60;99.90
22288;DHT22;11312;51.464;6.968;2022-07-06T07:30:52;18.70;99.90
22288;DHT22;11312;51.464;6.968;2022-07-06T07:33:18;18.90;99.90
22288;DHT22;11312;51.464;6.968;2022-07-06T07:35:43;19.50;99.90
22288;DHT22;11312;51.464;6.968;2022-07-06T07:38:09;19.70;99.90
22288;DHT22;11312;51.464;6.968;2022-07-06T07:40:35;20.20;99.90
22288;DHT22;11312;51.464;6.968;2022-07-06T07:43:01;20.80;99.90
22288;DHT22;11312;51.464;6.968;2022-07-06T07:45:26;20.70;99.90
22288;DHT22;11312;51.464;6.968;2022-07-06T07:47:52;21.00;99.90
22288;DHT22;11312;51.464;6.968;2022-07-06T07:50:18;21.00;99.90
22288;DHT22;11312;51.464;6.968;2022-07-06T07:52:43;20.80;99.90
22288;DHT22;11312;51.464;6.968;2022-07-06T07:55:09;20.70;99.90
22288;DHT22;11312;51.464;6.968;2022-07-06T07:57:35;20.90;99.90
22288;DHT22;11312;51.464;6.968;2022-07-06T08:00:00;21.20;99.90
22288;DHT22;11312;51.464;6.968;2022-07-06T08:02:26;21.10;99.90
22288;DHT22;11312;51.464;6.968;2022-07-06T08:04:51;21.20;99.90
22288;DHT22;11312;51.464;6.968;2022-07-06T08:07:17;21.70;99.90
22288;DHT22;11312;51.464;6.968;2022-07-06T08:09:43;22.40;99.90
22288;DHT22;11312;51.464;6.968;2022-07-06T08:12:09;22.20;99.90
22288;DHT22;11312;51.464;6.968;2022-07-06T08:14:34;22.20;99.90
22288;DHT22;11312;51.464;6.968;2022-07-06T08:17:03;21.90;99.90
22288;DHT22;11312;51.464;6.968;2022-07-06T08:19:28;21.20;99.90
22288;DHT22;11312;51.464;6.968;2022-07-06T08:21:56;20.70;99.90
22288;DHT22;11312;51.464;6.968;2022-07-06T08:24:22;20.00;99.90
22288;DHT22;11312;51.464;6.968;2022-07-06T08:26:47;20.30;99.90
22288;DHT22;11312;51.464;6.968;2022-07-06T08:29:13;19.90;99.90
22288;DHT22;11312;51.464;6.968;2022-07-06T08:31:39;19.50;99.90
22288;DHT22;11312;51.464;6.968;2022-07-06T08:34:05;19.30;99.90
22288;DHT22;11312;51.464;6.968;2022-07-06T08:36:30;19.00;99.90
22288;DHT22;11312;51.464;6.968;2022-07-06T08:38:57;19.00;99.90
22288;DHT22;11312;51.464;6.968;2022-07-06T08:41:24;19.50;99.90
22288;DHT22;11312;51.464;6.968;2022-07-06T08:43:51;19.80;99.90
22288;DHT22;11312;51.464;6.968;2022-07-06T08:46:18;19.90;99.90
22288;DHT22;11312;51.464;6.968;2022-07-06T08:48:45;19.90;99.90
22288;DHT22;11312;51.464;6.968;2022-07-06T08:51:13;19.70;99.90
22288;DHT22;11312;51.464;6.968;2022-07-06T08:53:41;19.40;99.90
22288;DHT22;11312;51.464;6.968;2022-07-06T08:56:07;18.80;1.00
22288;DHT22;11312;51.464;6.968;2022-07-06T08:58:34;18.70;1.00
22288;DHT22;11312;51.464;6.968;2022-07-06T09:01:00;18.70;1.00
22288;DHT22;11312;51.464;6.968;2022-07-06T09:03:27;18.90;1.00
22288;DHT22;11312;51.464;6.968;2022-07-06T09:05:58;19.10;99.90
22288;DHT22;11312;51.464;6.968;2022-07-06T09:08:27;19.30;99.90
22288;DHT22;11312;51.464;6.968;2022-07-06T09:10:54;20.20;99.90
22288;DHT22;11312;51.464;6.968;2022-07-06T09:13:19;20.70;99.90
22288;DHT22;11312;51.464;6.968;2022-07-06T09:15:45;21.20;99.90
22288;DHT22;11312;51.464;6.968;2022-07-06T09:18:11;21.00;99.90
22288;DHT22;11312;51.464;6.968;2022-07-06T09:20:36;20.50;99.90
22288;DHT22;11312;51.464;6.968;2022-07-06T09:23:04;20.30;1.00
22288;DHT22;11312;51.464;6.968;2022-07-06T09:25:32;20.10;1.00
22288;DHT22;11312;51.464;6.968;2022-07-06T09:27:58;20.10;1.00
22288;DHT22;11312;51.464;6.968;2022-07-06T09:30:25;19.90;99.90
22288;DHT22;11312;51.464;6.968;2022-07-06T09:32:54;19.70;99.90
22288;DHT22;11312;51.464;6.968;2022-07-06T09:35:28;20.60;99.90
22288;DHT22;11312;51.464;6.968;2022-07-06T09:38:08;22.00;99.90
22288;DHT22;11312;51.464;6.968;2022-07-06T09:40:39;22.60;99.90
22288;DHT22;11312;51.464;6.968;2022-07-06T09:45:39;21.90;99.90
22288;DHT22;11312;51.464;6.968;2022-07-06T09:48:14;21.50;99.90
22288;DHT22;11312;51.464;6.968;2022-07-06T09:50:44;21.00;99.90
22288;DHT22;11312;51.464;6.968;2022-07-06T09:53:12;20.90;99.90
22288;DHT22;11312;51.464;6.968;2022-07-06T09:55:38;20.80;99.90
22288;DHT22;11312;51.464;6.968;2022-07-06T09:58:04;20.30;99.90
22288;DHT22;11312;51.464;6.968;2022-07-06T10:00:30;20.30;99.90
22288;DHT22;11312;51.464;6.968;2022-07-06T10:02:56;20.50;99.90
22288;DHT22;11312;51.464;6.968;2022-07-06T10:05:22;21.10;99.90
22288;DHT22;11312;51.464;6.968;2022-07-06T10:07:58;21.80;1.00
22288;DHT22;11312;51.464;6.968;2022-07-06T10:10:28;22.30;1.00
22288;DHT22;11312;51.464;6.968;2022-07-06T10:12:56;23.10;99.90
22288;DHT22;11312;51.464;6.968;2022-07-06T10:15:27;24.20;99.90
22288;DHT22;11312;51.464;6.968;2022-07-06T10:17:55;24.00;99.90
22288;DHT22;11312;51.464;6.968;2022-07-06T10:20:21;22.90;99.90
22288;DHT22;11312;51.464;6.968;2022-07-06T10:22:50;22.40;99.90
22288;DHT22;11312;51.464;6.968;2022-07-06T10:25:19;22.10;99.90
22288;DHT22;11312;51.464;6.968;2022-07-06T10:27:46;22.60;99.90
22288;DHT22;11312;51.464;6.968;2022-07-06T10:30:12;23.80;99.90
22288;DHT22;11312;51.464;6.968;2022-07-06T10:32:39;23.70;99.90
22288;DHT22;11312;51.464;6.968;2022-07-06T10:35:07;24.10;99.90
22288;DHT22;11312;51.464;6.968;2022-07-06T10:37:33;24.10;99.90
22288;DHT22;11312;51.464;6.968;2022-07-06T10:39:59;23.60;99.90
22288;DHT22;11312;51.464;6.968;2022-07-06T10:42:49;22.30;99.90
22288;DHT22;11312;51.464;6.968;2022-07-06T10:50:52;21.20;99.90
22288;DHT22;11312;51.464;6.968;2022-07-06T10:53:23;21.10;99.90
22288;DHT22;11312;51.464;6.968;2022-07-06T10:55:51;21.10;99.90
22288;DHT22;11312;51.464;6.968;2022-07-06T11:01:11;20.60;99.90
22288;DHT22;11312;51.464;6.968;2022-07-06T11:03:40;20.40;99.90
22288;DHT22;11312;51.464;6.968;2022-07-06T11:06:12;20.40;1.00
22288;DHT22;11312;51.464;6.968;2022-07-06T11:11:24;20.50;99.90
22288;DHT22;11312;51.464;6.968;2022-07-06T11:16:20;20.80;99.90
22288;DHT22;11312;51.464;6.968;2022-07-06T11:18:48;20.90;99.90
22288;DHT22;11312;51.464;6.968;2022-07-06T11:21:23;21.10;99.90
22288;DHT22;11312;51.464;6.968;2022-07-06T11:23:50;21.50;99.90
22288;DHT22;11312;51.464;6.968;2022-07-06T11:26:17;23.00;99.90
22288;DHT22;11312;51.464;6.968;2022-07-06T11:28:46;24.00;99.90
22288;DHT22;11312;51.464;6.968;2022-07-06T11:31:12;23.00;99.90
22288;DHT22;11312;51.464;6.968;2022-07-06T11:33:38;22.20;99.90
22288;DHT22;11312;51.464;6.968;2022-07-06T11:36:22;21.90;99.90
22288;DHT22;11312;51.464;6.968;2022-07-06T11:38:49;22.20;99.90
22288;DHT22;11312;51.464;6.968;2022-07-06T11:41:16;22.50;99.90
22288;DHT22;11312;51.464;6.968;2022-07-06T11:43:43;23.00;99.90
22288;DHT22;11312;51.464;6.968;2022-07-06T11:46:34;23.60;99.90
22288;DHT22;11312;51.464;6.968;2022-07-06T11:49:07;24.50;30.00
22288;DHT22;11312;51.464;6.968;2022-07-06T11:51:44;25.10;99.90
22288;DHT22;11312;51.464;6.968;2022-07-06T11:54:17;25.90;99.90
22288;DHT22;11312;51.464;6.968;2022-07-06T11:56:51;25.70;99.90
22288;DHT22;11312;51.464;6.968;2022-07-06T11:59:36;25.60;99.90
22288;DHT22;11312;51.464;6.968;2022-07-06T12:02:04;24.90;99.90
22288;DHT22;11312;51.464;6.968;2022-07-06T12:04:31;25.50;99.90
22288;DHT22;11312;51.464;6.968;2022-07-06T12:07:26;25.60;99.90
22288;DHT22;11312;51.464;6.968;2022-07-06T12:09:52;25.40;99.90
22288;DHT22;11312;51.464;6.968;2022-07-06T12:12:18;24.40;99.90
22288;DHT22;11312;51.464;6.968;2022-07-06T12:14:44;23.60;99.90
22288;DHT22;11312;51.464;6.968;2022-07-06T12:17:12;23.10;99.90
22288;DHT22;11312;51.464;6.968;2022-07-06T12:19:39;22.70;1.00
22288;DHT22;11312;51.464;6.968;2022-07-06T12:22:06;22.70;1.00
22288;DHT22;11312;51.464;6.968;2022-07-06T12:24:34;23.20;15.30
22288;DHT22;11312;51.464;6.968;2022-07-06T12:27:17;23.50;99.90
22288;DHT22;11312;51.464;6.968;2022-07-06T12:29:43;23.60;99.90
22288;DHT22;11312;51.464;6.968;2022-07-06T12:32:20;24.70;1.00
22288;DHT22;11312;51.464;6.968;2022-07-06T12:34:56;25.30;99.90
22288;DHT22;11312;51.464;6.968;2022-07-06T12:37:27;25.90;1.00
22288;DHT22;11312;51.464;6.968;2022-07-06T12:39:52;25.50;1.00
22288;DHT22;11312;51.464;6.968;2022-07-06T12:42:18;25.90;99.90
22288;DHT22;11312;51.464;6.968;2022-07-06T12:44:47;26.20;1.00
22288;DHT22;11312;51.464;6.968;2022-07-06T12:47:17;25.90;1.00
22288;DHT22;11312;51.464;6.968;2022-07-06T12:49:44;25.70;1.00
22288;DHT22;11312;51.464;6.968;2022-07-06T12:52:11;26.10;1.00
22288;DHT22;11312;51.464;6.968;2022-07-06T12:54:43;25.90;1.00
22288;DHT22;11312;51.464;6.968;2022-07-06T12:57:13;24.20;99.90
22288;DHT22;11312;51.464;6.968;2022-07-06T13:02:07;23.40;99.90
22288;DHT22;11312;51.464;6.968;2022-07-06T13:04:36;23.10;99.90
22288;DHT22;11312;51.464;6.968;2022-07-06T13:07:03;23.40;99.90
22288;DHT22;11312;51.464;6.968;2022-07-06T13:09:29;23.70;99.90
22288;DHT22;11312;51.464;6.968;2022-07-06T13:11:56;23.80;1.00
22288;DHT22;11312;51.464;6.968;2022-07-06T13:14:22;24.50;1.00
22288;DHT22;11312;51.464;6.968;2022-07-06T13:16:48;25.00;1.00
22288;DHT22;11312;51.464;6.968;2022-07-06T13:19:14;23.80;99.90
22288;DHT22;11312;51.464;6.968;2022-07-06T13:21:40;23.00;99.90
22288;DHT22;11312;51.464;6.968;2022-07-06T13:24:06;22.60;81.20
22288;DHT22;11312;51.464;6.968;2022-07-06T13:26:32;22.30;1.00
22288;DHT22;11312;51.464;6.968;2022-07-06T13:29:03;22.10;80.30
22288;DHT22;11312;51.464;6.968;2022-07-06T13:31:29;22.20;1.00
22288;DHT22;11312;51.464;6.968;2022-07-06T13:33:55;23.40;1.00
22288;DHT22;11312;51.464;6.968;2022-07-06T13:36:22;24.80;99.90
22288;DHT22;11312;51.464;6.968;2022-07-06T13:38:48;25.30;99.90
22288;DHT22;11312;51.464;6.968;2022-07-06T13:41:13;24.60;99.90
22288;DHT22;11312;51.464;6.968;2022-07-06T13:43:39;25.30;99.90
22288;DHT22;11312;51.464;6.968;2022-07-06T13:46:06;25.60;99.90
22288;DHT22;11312;51.464;6.968;2022-07-06T13:48:33;25.10;99.90
22288;DHT22;11312;51.464;6.968;2022-07-06T13:50:59;24.40;99.90
22288;DHT22;11312;51.464;6.968;2022-07-06T13:53:25;23.90;99.90
22288;DHT22;11312;51.464;6.968;2022-07-06T13:55:51;23.80;99.90
22288;DHT22;11312;51.464;6.968;2022-07-06T13:58:17;23.30;99.90
22288;DHT22;11312;51.464;6.968;2022-07-06T14:00:43;23.30;99.90
22288;DHT22;11312;51.464;6.968;2022-07-06T14:03:09;23.20;99.90
22288;DHT22;11312;51.464;6.968;2022-07-06T14:05:35;23.10;99.90
22288;DHT22;11312;51.464;6.968;2022-07-06T14:08:01;23.20;99.90
22288;DHT22;11312;51.464;6.968;2022-07-06T14:10:27;23.10;1.00
22288;DHT22;11312;51.464;6.968;2022-07-06T14:12:53;23.20;99.90
22288;DHT22;11312;51.464;6.968;2022-07-06T14:15:19;23.40;99.90
22288;DHT22;11312;51.464;6.968;2022-07-06T14:17:44;23.30;37.80
22288;DHT22;11312;51.464;6.968;2022-07-06T14:20:11;23.30;99.90
22288;DHT22;11312;51.464;6.968;2022-07-06T14:22:37;23.50;99.90
22288;DHT22;11312;51.464;6.968;2022-07-06T14:25:03;23.50;1.00
22288;DHT22;11312;51.464;6.968;2022-07-06T14:27:30;24.40;99.90
22288;DHT22;11312;51.464;6.968;2022-07-06T14:29:56;23.70;1.00
22288;DHT22;11312;51.464;6.968;2022-07-06T14:32:22;23.30;1.00
22288;DHT22;11312;51.464;6.968;2022-07-06T14:34:48;22.90;99.90
22288;DHT22;11312;51.464;6.968;2022-07-06T14:37:13;22.90;1.00
22288;DHT22;11312;51.464;6.968;2022-07-06T14:39:39;23.10;90.60
22288;DHT22;11312;51.464;6.968;2022-07-06T14:42:05;23.90;99.90
22288;DHT22;11312;51.464;6.968;2022-07-06T14:44:31;24.10;1.00
22288;DHT22;11312;51.464;6.968;2022-07-06T14:46:56;24.40;99.90
22288;DHT22;11312;51.464;6.968;2022-07-06T14:49:22;24.90;1.00
22288;DHT22;11312;51.464;6.968;2022-07-06T14:51:48;25.20;1.00
22288;DHT22;11312;51.464;6.968;2022-07-06T14:54:14;25.10;1.00
22288;DHT22;11312;51.464;6.968;2022-07-06T14:56:40;24.40;1.00
22288;DHT22;11312;51.464;6.968;2022-07-06T14:59:06;23.80;1.00
22288;DHT22;11312;51.464;6.968;2022-07-06T15:01:32;24.20;1.00
22288;DHT22;11312;51.464;6.968;2022-07-06T15:03:58;24.90;1.00
22288;DHT22;11312;51.464;6.968;2022-07-06T15:06:23;24.70;1.00
22288;DHT22;11312;51.464;6.968;2022-07-06T15:08:49;24.80;1.00
22288;DHT22;11312;51.464;6.968;2022-07-06T15:11:14;24.20;4.20
22288;DHT22;11312;51.464;6.968;2022-07-06T15:13:40;23.70;5.30
22288;DHT22;11312;51.464;6.968;2022-07-06T15:16:06;23.20;1.00
22288;DHT22;11312;51.464;6.968;2022-07-06T15:18:31;23.70;99.90
22288;DHT22;11312;51.464;6.968;2022-07-06T15:20:57;23.70;99.90
22288;DHT22;11312;51.464;6.968;2022-07-06T15:23:23;23.40;1.00
22288;DHT22;11312;51.464;6.968;2022-07-06T15:25:49;23.00;1.00
22288;DHT22;11312;51.464;6.968;2022-07-06T15:28:15;22.90;1.00
22288;DHT22;11312;51.464;6.968;2022-07-06T15:30:41;22.80;1.00
22288;DHT22;11312;51.464;6.968;2022-07-06T15:33:07;22.90;1.00
22288;DHT22;11312;51.464;6.968;2022-07-06T15:35:36;23.00;1.00
22288;DHT22;11312;51.464;6.968;2022-07-06T15:38:02;23.30;99.90
22288;DHT22;11312;51.464;6.968;2022-07-06T15:40:28;23.70;99.90
22288;DHT22;11312;51.464;6.968;2022-07-06T15:42:59;23.30;1.00
22288;DHT22;11312;51.464;6.968;2022-07-06T15:45:25;23.10;1.00
22288;DHT22;11312;51.464;6.968;2022-07-06T15:47:51;22.70;1.00
22288;DHT22;11312;51.464;6.968;2022-07-06T15:50:17;22.60;1.00